CYGT

Details ICAO CYGT (YGT)
Name Igloolik
Region Canada
Timezone America/Iqaluit (UTC-4.0)
Plans Departing 3
Arriving 14
Stats Elevation 98 ft / 30 m (AMSL)
Location 69.364817° -81.817087°
Runways 1
Magnetic Variation 27.565° W
Sunrise Unknown / Unknown
Sunset Unknown / Unknown
Advertisement - Login to hide

Runways

ID Width Length Bearing (true) Bearing (mag) Surface Threshold Offset Overrun Length
15 98 ft / 30 m 4,502 ft / 1,372 m 145.64° 173.20° Dirt 0 ft / 0 m 0 ft / 0 m
33 98 ft / 30 m 4,502 ft / 1,372 m 325.65° 353.21° Dirt 0 ft / 0 m 0 ft / 0 m

Map

Weather


0- 5 10 15 20 25 30 35+ Temperature / ° C

Clouds and Precipitation
Forecast for 2018-06-25 12:00 UTC. Updated 38 minutes ago

Ground ~20,000 ft ~40,000 ft Winds

METAR

CYGT 251000Z 31013G18KT 15SM FEW034 FEW073 03/M00 A2954 RMK SC1AC1 SC TR 8.3/1.6/0.0 SLP008

TAF

Not found
Warning: Do not use this data for real-world aviation or navigation. No guarantee of current accuracy is given.